sensor_id;sensor_type;location;lat;lon;timestamp;temperature;humidity
21487;DHT22;10905;50.822;4.336;2023-09-19T00:02:17;16.80;99.90
21487;DHT22;10905;50.822;4.336;2023-09-19T00:04:43;16.90;99.90
21487;DHT22;10905;50.822;4.336;2023-09-19T00:07:10;16.90;99.90
21487;DHT22;10905;50.822;4.336;2023-09-19T00:09:36;17.00;99.90
21487;DHT22;10905;50.822;4.336;2023-09-19T00:12:06;17.00;99.90
21487;DHT22;10905;50.822;4.336;2023-09-19T00:14:32;16.90;99.90
21487;DHT22;10905;50.822;4.336;2023-09-19T00:17:01;16.90;99.90
21487;DHT22;10905;50.822;4.336;2023-09-19T00:19:34;16.90;99.90
21487;DHT22;10905;50.822;4.336;2023-09-19T00:21:59;16.80;99.90
21487;DHT22;10905;50.822;4.336;2023-09-19T00:24:26;16.80;99.90
21487;DHT22;10905;50.822;4.336;2023-09-19T00:26:53;16.80;99.90
21487;DHT22;10905;50.822;4.336;2023-09-19T00:29:21;16.80;99.90
21487;DHT22;10905;50.822;4.336;2023-09-19T00:31:47;16.80;99.90
21487;DHT22;10905;50.822;4.336;2023-09-19T00:34:12;16.90;99.90
21487;DHT22;10905;50.822;4.336;2023-09-19T00:36:38;16.90;99.90
21487;DHT22;10905;50.822;4.336;2023-09-19T00:39:08;16.90;99.90
21487;DHT22;10905;50.822;4.336;2023-09-19T00:41:35;16.80;99.90
21487;DHT22;10905;50.822;4.336;2023-09-19T00:44:02;16.80;99.90
21487;DHT22;10905;50.822;4.336;2023-09-19T00:46:29;16.80;99.90
21487;DHT22;10905;50.822;4.336;2023-09-19T00:48:55;16.80;99.90
21487;DHT22;10905;50.822;4.336;2023-09-19T00:51:22;16.80;99.90
21487;DHT22;10905;50.822;4.336;2023-09-19T00:53:51;16.80;99.90
21487;DHT22;10905;50.822;4.336;2023-09-19T00:56:18;16.70;99.90
21487;DHT22;10905;50.822;4.336;2023-09-19T00:58:45;16.70;99.90
21487;DHT22;10905;50.822;4.336;2023-09-19T01:01:12;16.70;99.90
21487;DHT22;10905;50.822;4.336;2023-09-19T01:03:42;16.80;99.90
21487;DHT22;10905;50.822;4.336;2023-09-19T01:06:09;16.80;99.90
21487;DHT22;10905;50.822;4.336;2023-09-19T01:08:35;16.70;99.90
21487;DHT22;10905;50.822;4.336;2023-09-19T01:11:25;16.70;99.90
21487;DHT22;10905;50.822;4.336;2023-09-19T01:14:06;16.60;99.90
21487;DHT22;10905;50.822;4.336;2023-09-19T01:16:42;16.60;99.90
21487;DHT22;10905;50.822;4.336;2023-09-19T01:22:25;16.70;99.90
21487;DHT22;10905;50.822;4.336;2023-09-19T01:30:21;16.50;99.90
21487;DHT22;10905;50.822;4.336;2023-09-19T01:32:51;16.50;99.90
21487;DHT22;10905;50.822;4.336;2023-09-19T01:35:18;16.50;99.90
21487;DHT22;10905;50.822;4.336;2023-09-19T01:37:44;16.50;99.90
21487;DHT22;10905;50.822;4.336;2023-09-19T01:40:12;16.60;99.90
21487;DHT22;10905;50.822;4.336;2023-09-19T01:48:12;16.30;99.90
21487;DHT22;10905;50.822;4.336;2023-09-19T01:50:59;16.30;99.90
21487;DHT22;10905;50.822;4.336;2023-09-19T01:53:50;16.30;99.90
21487;DHT22;10905;50.822;4.336;2023-09-19T01:56:42;16.30;99.90
21487;DHT22;10905;50.822;4.336;2023-09-19T01:59:16;16.20;99.90
21487;DHT22;10905;50.822;4.336;2023-09-19T02:01:45;16.30;99.90
21487;DHT22;10905;50.822;4.336;2023-09-19T02:04:11;16.30;99.90
21487;DHT22;10905;50.822;4.336;2023-09-19T02:06:46;16.30;99.90
21487;DHT22;10905;50.822;4.336;2023-09-19T02:09:13;16.20;99.90
21487;DHT22;10905;50.822;4.336;2023-09-19T02:11:40;16.30;99.90
21487;DHT22;10905;50.822;4.336;2023-09-19T02:14:06;16.30;99.90
21487;DHT22;10905;50.822;4.336;2023-09-19T02:16:34;16.30;99.90
21487;DHT22;10905;50.822;4.336;2023-09-19T02:19:00;16.30;99.90
21487;DHT22;10905;50.822;4.336;2023-09-19T02:21:26;16.40;99.90
21487;DHT22;10905;50.822;4.336;2023-09-19T02:23:55;16.30;99.90
21487;DHT22;10905;50.822;4.336;2023-09-19T02:26:21;16.40;99.90
21487;DHT22;10905;50.822;4.336;2023-09-19T02:28:50;16.50;99.90
21487;DHT22;10905;50.822;4.336;2023-09-19T02:31:16;16.60;99.90
21487;DHT22;10905;50.822;4.336;2023-09-19T02:33:42;16.60;99.90
21487;DHT22;10905;50.822;4.336;2023-09-19T02:36:09;16.50;99.90
21487;DHT22;10905;50.822;4.336;2023-09-19T02:38:34;16.50;99.90
21487;DHT22;10905;50.822;4.336;2023-09-19T02:41:00;16.50;99.90
21487;DHT22;10905;50.822;4.336;2023-09-19T02:43:27;16.50;99.90
21487;DHT22;10905;50.822;4.336;2023-09-19T02:45:53;16.50;99.90
21487;DHT22;10905;50.822;4.336;2023-09-19T02:48:22;16.50;99.90
21487;DHT22;10905;50.822;4.336;2023-09-19T02:50:51;16.40;99.90
21487;DHT22;10905;50.822;4.336;2023-09-19T02:53:17;16.40;99.90
21487;DHT22;10905;50.822;4.336;2023-09-19T02:55:44;16.50;99.90
21487;DHT22;10905;50.822;4.336;2023-09-19T02:58:10;16.50;99.90
21487;DHT22;10905;50.822;4.336;2023-09-19T03:00:40;16.40;99.90
21487;DHT22;10905;50.822;4.336;2023-09-19T03:03:07;16.30;99.90
21487;DHT22;10905;50.822;4.336;2023-09-19T03:05:34;16.30;99.90
21487;DHT22;10905;50.822;4.336;2023-09-19T03:08:00;16.30;99.90
21487;DHT22;10905;50.822;4.336;2023-09-19T03:10:26;16.30;99.90
21487;DHT22;10905;50.822;4.336;2023-09-19T03:12:53;16.30;99.90
21487;DHT22;10905;50.822;4.336;2023-09-19T03:15:19;16.30;99.90
21487;DHT22;10905;50.822;4.336;2023-09-19T03:17:47;16.30;99.90
21487;DHT22;10905;50.822;4.336;2023-09-19T03:20:13;16.40;99.90
21487;DHT22;10905;50.822;4.336;2023-09-19T03:22:39;16.40;99.90
21487;DHT22;10905;50.822;4.336;2023-09-19T03:25:06;16.30;99.90
21487;DHT22;10905;50.822;4.336;2023-09-19T03:27:36;16.30;99.90
21487;DHT22;10905;50.822;4.336;2023-09-19T03:30:03;16.30;99.90
21487;DHT22;10905;50.822;4.336;2023-09-19T03:32:35;16.30;99.90
21487;DHT22;10905;50.822;4.336;2023-09-19T03:35:01;16.30;99.90
21487;DHT22;10905;50.822;4.336;2023-09-19T03:37:27;16.20;99.90
21487;DHT22;10905;50.822;4.336;2023-09-19T03:39:53;16.20;99.90
21487;DHT22;10905;50.822;4.336;2023-09-19T03:42:18;16.10;99.90
21487;DHT22;10905;50.822;4.336;2023-09-19T03:44:51;16.10;99.90
21487;DHT22;10905;50.822;4.336;2023-09-19T03:47:17;16.10;99.90
21487;DHT22;10905;50.822;4.336;2023-09-19T03:49:44;16.00;99.90
21487;DHT22;10905;50.822;4.336;2023-09-19T03:52:10;16.00;99.90
21487;DHT22;10905;50.822;4.336;2023-09-19T03:54:36;15.90;99.90
21487;DHT22;10905;50.822;4.336;2023-09-19T03:57:01;15.90;99.90
21487;DHT22;10905;50.822;4.336;2023-09-19T03:59:29;15.90;99.90
21487;DHT22;10905;50.822;4.336;2023-09-19T04:01:55;15.90;99.90
21487;DHT22;10905;50.822;4.336;2023-09-19T04:04:22;15.90;99.90
21487;DHT22;10905;50.822;4.336;2023-09-19T04:06:50;16.00;99.90
21487;DHT22;10905;50.822;4.336;2023-09-19T04:09:16;16.00;99.90
21487;DHT22;10905;50.822;4.336;2023-09-19T04:11:42;15.90;99.90
21487;DHT22;10905;50.822;4.336;2023-09-19T04:14:08;15.90;99.90
21487;DHT22;10905;50.822;4.336;2023-09-19T04:16:33;15.90;99.90
21487;DHT22;10905;50.822;4.336;2023-09-19T04:18:59;15.90;99.90
21487;DHT22;10905;50.822;4.336;2023-09-19T04:21:24;15.90;99.90
21487;DHT22;10905;50.822;4.336;2023-09-19T04:23:50;15.80;99.90
21487;DHT22;10905;50.822;4.336;2023-09-19T04:26:16;15.90;99.90
21487;DHT22;10905;50.822;4.336;2023-09-19T04:28:42;15.90;99.90
21487;DHT22;10905;50.822;4.336;2023-09-19T04:31:09;15.80;99.90
21487;DHT22;10905;50.822;4.336;2023-09-19T04:33:35;15.80;99.90
21487;DHT22;10905;50.822;4.336;2023-09-19T04:36:02;15.80;99.90
21487;DHT22;10905;50.822;4.336;2023-09-19T04:38:28;15.80;99.90
21487;DHT22;10905;50.822;4.336;2023-09-19T04:40:57;15.80;99.90
21487;DHT22;10905;50.822;4.336;2023-09-19T04:43:24;15.80;99.90
21487;DHT22;10905;50.822;4.336;2023-09-19T04:45:50;15.80;99.90
21487;DHT22;10905;50.822;4.336;2023-09-19T04:48:16;15.90;99.90
21487;DHT22;10905;50.822;4.336;2023-09-19T04:50:43;15.80;99.90
21487;DHT22;10905;50.822;4.336;2023-09-19T04:53:09;15.80;99.90
21487;DHT22;10905;50.822;4.336;2023-09-19T04:55:34;15.70;99.90
21487;DHT22;10905;50.822;4.336;2023-09-19T04:58:00;15.80;99.90
21487;DHT22;10905;50.822;4.336;2023-09-19T05:00:25;15.80;99.90
21487;DHT22;10905;50.822;4.336;2023-09-19T05:02:55;15.80;99.90
21487;DHT22;10905;50.822;4.336;2023-09-19T05:05:21;15.80;99.90
21487;DHT22;10905;50.822;4.336;2023-09-19T05:07:49;15.80;99.90
21487;DHT22;10905;50.822;4.336;2023-09-19T05:10:15;15.80;99.90
21487;DHT22;10905;50.822;4.336;2023-09-19T05:12:44;15.70;99.90
21487;DHT22;10905;50.822;4.336;2023-09-19T05:15:12;15.70;99.90
21487;DHT22;10905;50.822;4.336;2023-09-19T05:17:38;15.70;99.90
21487;DHT22;10905;50.822;4.336;2023-09-19T05:20:04;15.60;99.90
21487;DHT22;10905;50.822;4.336;2023-09-19T05:22:42;15.70;99.90
21487;DHT22;10905;50.822;4.336;2023-09-19T05:25:09;15.70;99.90
21487;DHT22;10905;50.822;4.336;2023-09-19T05:27:35;15.70;99.90
21487;DHT22;10905;50.822;4.336;2023-09-19T05:30:01;15.70;99.90
21487;DHT22;10905;50.822;4.336;2023-09-19T05:32:26;15.70;99.90
21487;DHT22;10905;50.822;4.336;2023-09-19T05:34:52;15.70;99.90
21487;DHT22;10905;50.822;4.336;2023-09-19T05:37:21;15.70;99.90
21487;DHT22;10905;50.822;4.336;2023-09-19T05:39:49;15.70;99.90
21487;DHT22;10905;50.822;4.336;2023-09-19T05:42:14;15.70;99.90
21487;DHT22;10905;50.822;4.336;2023-09-19T05:44:40;15.80;99.90
21487;DHT22;10905;50.822;4.336;2023-09-19T05:47:06;15.90;99.90
21487;DHT22;10905;50.822;4.336;2023-09-19T05:49:37;15.90;99.90
21487;DHT22;10905;50.822;4.336;2023-09-19T05:52:06;15.90;99.90
21487;DHT22;10905;50.822;4.336;2023-09-19T05:54:32;15.80;99.90
21487;DHT22;10905;50.822;4.336;2023-09-19T05:57:00;15.80;99.90
21487;DHT22;10905;50.822;4.336;2023-09-19T05:59:25;15.80;99.90
21487;DHT22;10905;50.822;4.336;2023-09-19T06:01:51;15.80;99.90
21487;DHT22;10905;50.822;4.336;2023-09-19T06:04:17;15.70;99.90
21487;DHT22;10905;50.822;4.336;2023-09-19T06:06:44;15.80;99.90
21487;DHT22;10905;50.822;4.336;2023-09-19T06:09:10;15.80;99.90
21487;DHT22;10905;50.822;4.336;2023-09-19T06:11:36;15.80;99.90
21487;DHT22;10905;50.822;4.336;2023-09-19T06:14:02;15.80;99.90
21487;DHT22;10905;50.822;4.336;2023-09-19T06:16:29;15.80;99.90
21487;DHT22;10905;50.822;4.336;2023-09-19T06:18:55;15.90;99.90
21487;DHT22;10905;50.822;4.336;2023-09-19T06:21:22;15.90;99.90
21487;DHT22;10905;50.822;4.336;2023-09-19T06:23:48;15.90;99.90
21487;DHT22;10905;50.822;4.336;2023-09-19T06:26:14;16.00;99.90
21487;DHT22;10905;50.822;4.336;2023-09-19T06:28:40;16.00;99.90
21487;DHT22;10905;50.822;4.336;2023-09-19T06:31:06;16.10;99.90
21487;DHT22;10905;50.822;4.336;2023-09-19T06:33:35;16.10;99.90
21487;DHT22;10905;50.822;4.336;2023-09-19T06:36:04;16.20;99.90
21487;DHT22;10905;50.822;4.336;2023-09-19T06:38:30;16.20;99.90
21487;DHT22;10905;50.822;4.336;2023-09-19T06:40:58;16.20;99.90
21487;DHT22;10905;50.822;4.336;2023-09-19T06:43:24;16.20;99.90
21487;DHT22;10905;50.822;4.336;2023-09-19T06:45:49;16.10;99.90
21487;DHT22;10905;50.822;4.336;2023-09-19T06:48:17;16.10;99.90
21487;DHT22;10905;50.822;4.336;2023-09-19T06:50:43;16.10;99.90
21487;DHT22;10905;50.822;4.336;2023-09-19T06:53:10;16.10;99.90
21487;DHT22;10905;50.822;4.336;2023-09-19T06:55:36;16.10;99.90
21487;DHT22;10905;50.822;4.336;2023-09-19T06:58:02;16.20;99.90
21487;DHT22;10905;50.822;4.336;2023-09-19T07:00:28;16.20;99.90
21487;DHT22;10905;50.822;4.336;2023-09-19T07:03:01;16.20;99.90
21487;DHT22;10905;50.822;4.336;2023-09-19T07:05:31;16.30;99.90
21487;DHT22;10905;50.822;4.336;2023-09-19T07:07:58;16.40;99.90
21487;DHT22;10905;50.822;4.336;2023-09-19T07:10:25;16.40;99.90
21487;DHT22;10905;50.822;4.336;2023-09-19T07:13:03;16.40;99.90
21487;DHT22;10905;50.822;4.336;2023-09-19T07:15:33;16.40;99.90
21487;DHT22;10905;50.822;4.336;2023-09-19T07:18:01;16.40;99.90
21487;DHT22;10905;50.822;4.336;2023-09-19T07:20:26;16.50;99.90
21487;DHT22;10905;50.822;4.336;2023-09-19T07:22:54;16.40;99.90
21487;DHT22;10905;50.822;4.336;2023-09-19T07:25:25;16.40;99.90
21487;DHT22;10905;50.822;4.336;2023-09-19T07:27:51;16.40;99.90
21487;DHT22;10905;50.822;4.336;2023-09-19T07:30:16;16.40;99.90
21487;DHT22;10905;50.822;4.336;2023-09-19T07:32:42;16.40;99.90
21487;DHT22;10905;50.822;4.336;2023-09-19T07:35:08;16.50;99.90
21487;DHT22;10905;50.822;4.336;2023-09-19T07:37:34;16.60;99.90
21487;DHT22;10905;50.822;4.336;2023-09-19T07:40:04;16.70;99.90
21487;DHT22;10905;50.822;4.336;2023-09-19T07:42:35;16.60;99.90
21487;DHT22;10905;50.822;4.336;2023-09-19T07:45:02;16.60;99.90
21487;DHT22;10905;50.822;4.336;2023-09-19T07:47:28;16.70;99.90
21487;DHT22;10905;50.822;4.336;2023-09-19T07:49:55;16.70;99.90
21487;DHT22;10905;50.822;4.336;2023-09-19T07:52:21;16.80;99.90
21487;DHT22;10905;50.822;4.336;2023-09-19T07:54:48;16.90;99.90
21487;DHT22;10905;50.822;4.336;2023-09-19T07:57:15;16.80;99.90
21487;DHT22;10905;50.822;4.336;2023-09-19T07:59:41;16.90;99.90
21487;DHT22;10905;50.822;4.336;2023-09-19T08:02:08;17.00;99.90
21487;DHT22;10905;50.822;4.336;2023-09-19T08:04:42;17.00;99.90
21487;DHT22;10905;50.822;4.336;2023-09-19T08:07:07;17.00;99.90
21487;DHT22;10905;50.822;4.336;2023-09-19T08:09:34;17.00;99.90
21487;DHT22;10905;50.822;4.336;2023-09-19T08:12:00;17.10;99.90
21487;DHT22;10905;50.822;4.336;2023-09-19T08:14:30;17.10;99.90
21487;DHT22;10905;50.822;4.336;2023-09-19T08:16:57;17.10;99.90
21487;DHT22;10905;50.822;4.336;2023-09-19T08:19:24;17.20;99.90
21487;DHT22;10905;50.822;4.336;2023-09-19T08:21:57;17.20;99.90
21487;DHT22;10905;50.822;4.336;2023-09-19T08:24:30;17.30;99.90
21487;DHT22;10905;50.822;4.336;2023-09-19T08:26:56;17.40;99.90
21487;DHT22;10905;50.822;4.336;2023-09-19T08:29:23;17.40;99.90
21487;DHT22;10905;50.822;4.336;2023-09-19T08:31:58;17.40;99.90
21487;DHT22;10905;50.822;4.336;2023-09-19T08:34:24;17.50;99.90
21487;DHT22;10905;50.822;4.336;2023-09-19T08:36:51;17.60;99.90
21487;DHT22;10905;50.822;4.336;2023-09-19T08:39:18;17.50;99.90
21487;DHT22;10905;50.822;4.336;2023-09-19T08:41:44;17.60;99.90
21487;DHT22;10905;50.822;4.336;2023-09-19T08:44:11;17.60;99.90
21487;DHT22;10905;50.822;4.336;2023-09-19T08:46:38;17.70;99.90
21487;DHT22;10905;50.822;4.336;2023-09-19T08:52:08;17.80;99.90
21487;DHT22;10905;50.822;4.336;2023-09-19T08:54:38;17.80;99.90
21487;DHT22;10905;50.822;4.336;2023-09-19T08:57:07;17.80;99.90
21487;DHT22;10905;50.822;4.336;2023-09-19T08:59:38;17.90;99.90
21487;DHT22;10905;50.822;4.336;2023-09-19T09:02:11;18.00;99.90
21487;DHT22;10905;50.822;4.336;2023-09-19T09:04:42;18.10;99.90
21487;DHT22;10905;50.822;4.336;2023-09-19T09:07:12;18.20;99.90
21487;DHT22;10905;50.822;4.336;2023-09-19T09:09:44;18.30;99.90
21487;DHT22;10905;50.822;4.336;2023-09-19T09:12:14;18.40;99.90
21487;DHT22;10905;50.822;4.336;2023-09-19T09:14:45;18.50;99.90
21487;DHT22;10905;50.822;4.336;2023-09-19T09:17:11;18.60;99.90
21487;DHT22;10905;50.822;4.336;2023-09-19T09:19:37;18.60;99.90
21487;DHT22;10905;50.822;4.336;2023-09-19T09:22:10;18.70;99.90
21487;DHT22;10905;50.822;4.336;2023-09-19T09:24:37;18.70;99.90
21487;DHT22;10905;50.822;4.336;2023-09-19T09:27:15;18.70;99.90
21487;DHT22;10905;50.822;4.336;2023-09-19T09:29:47;18.60;99.90
21487;DHT22;10905;50.822;4.336;2023-09-19T09:32:28;18.60;99.90
21487;DHT22;10905;50.822;4.336;2023-09-19T09:34:56;18.70;99.90
21487;DHT22;10905;50.822;4.336;2023-09-19T09:37:22;18.80;99.90
21487;DHT22;10905;50.822;4.336;2023-09-19T09:39:54;18.80;99.90
21487;DHT22;10905;50.822;4.336;2023-09-19T09:42:34;18.90;99.90
21487;DHT22;10905;50.822;4.336;2023-09-19T09:47:54;19.10;99.90
21487;DHT22;10905;50.822;4.336;2023-09-19T09:53:01;19.20;99.90
21487;DHT22;10905;50.822;4.336;2023-09-19T09:55:56;19.20;99.90
21487;DHT22;10905;50.822;4.336;2023-09-19T09:58:22;19.20;99.90
21487;DHT22;10905;50.822;4.336;2023-09-19T10:00:55;19.10;99.90
21487;DHT22;10905;50.822;4.336;2023-09-19T10:03:40;19.00;99.90
21487;DHT22;10905;50.822;4.336;2023-09-19T10:06:10;19.00;99.90
21487;DHT22;10905;50.822;4.336;2023-09-19T10:09:08;19.00;99.90
21487;DHT22;10905;50.822;4.336;2023-09-19T10:11:44;19.00;99.90
21487;DHT22;10905;50.822;4.336;2023-09-19T10:14:16;19.00;99.90
21487;DHT22;10905;50.822;4.336;2023-09-19T10:16:48;19.00;99.90
21487;DHT22;10905;50.822;4.336;2023-09-19T10:19:39;19.00;99.90
21487;DHT22;10905;50.822;4.336;2023-09-19T10:22:12;19.10;99.90
21487;DHT22;10905;50.822;4.336;2023-09-19T10:24:40;19.10;99.90
21487;DHT22;10905;50.822;4.336;2023-09-19T10:27:06;19.10;99.90
21487;DHT22;10905;50.822;4.336;2023-09-19T10:29:36;19.10;99.90
21487;DHT22;10905;50.822;4.336;2023-09-19T10:32:05;19.20;99.90
21487;DHT22;10905;50.822;4.336;2023-09-19T10:34:35;19.10;99.90
21487;DHT22;10905;50.822;4.336;2023-09-19T10:37:02;19.20;99.90
21487;DHT22;10905;50.822;4.336;2023-09-19T10:39:32;19.30;99.90
21487;DHT22;10905;50.822;4.336;2023-09-19T10:42:02;19.40;99.90
21487;DHT22;10905;50.822;4.336;2023-09-19T10:44:32;19.40;99.90
21487;DHT22;10905;50.822;4.336;2023-09-19T10:46:59;19.50;99.90
21487;DHT22;10905;50.822;4.336;2023-09-19T10:49:25;19.50;99.90
21487;DHT22;10905;50.822;4.336;2023-09-19T10:51:57;19.60;99.90
21487;DHT22;10905;50.822;4.336;2023-09-19T10:54:31;19.60;99.90
21487;DHT22;10905;50.822;4.336;2023-09-19T10:56:58;19.70;99.90
21487;DHT22;10905;50.822;4.336;2023-09-19T10:59:25;19.80;99.90
21487;DHT22;10905;50.822;4.336;2023-09-19T11:01:57;19.70;99.90
21487;DHT22;10905;50.822;4.336;2023-09-19T11:04:29;19.80;99.90
21487;DHT22;10905;50.822;4.336;2023-09-19T11:07:02;19.80;99.90
21487;DHT22;10905;50.822;4.336;2023-09-19T11:09:46;19.90;99.90
21487;DHT22;10905;50.822;4.336;2023-09-19T11:12:58;20.00;99.90
21487;DHT22;10905;50.822;4.336;2023-09-19T11:26:49;20.20;99.90
21487;DHT22;10905;50.822;4.336;2023-09-19T11:29:25;20.20;99.90
21487;DHT22;10905;50.822;4.336;2023-09-19T11:31:58;20.30;99.90
21487;DHT22;10905;50.822;4.336;2023-09-19T11:39:40;20.30;99.90
21487;DHT22;10905;50.822;4.336;2023-09-19T11:42:41;20.50;99.90
21487;DHT22;10905;50.822;4.336;2023-09-19T11:45:07;20.50;99.90
21487;DHT22;10905;50.822;4.336;2023-09-19T11:47:33;20.30;99.90
21487;DHT22;10905;50.822;4.336;2023-09-19T11:50:01;20.50;99.90
21487;DHT22;10905;50.822;4.336;2023-09-19T11:52:28;20.60;99.90
21487;DHT22;10905;50.822;4.336;2023-09-19T11:55:01;20.70;99.90
21487;DHT22;10905;50.822;4.336;2023-09-19T11:57:28;20.80;99.90
21487;DHT22;10905;50.822;4.336;2023-09-19T11:59:55;20.90;99.90
21487;DHT22;10905;50.822;4.336;2023-09-19T12:02:39;20.90;99.90
21487;DHT22;10905;50.822;4.336;2023-09-19T12:05:06;20.90;99.90
21487;DHT22;10905;50.822;4.336;2023-09-19T12:07:45;20.90;99.90
21487;DHT22;10905;50.822;4.336;2023-09-19T12:10:13;20.90;99.90
21487;DHT22;10905;50.822;4.336;2023-09-19T12:12:47;20.70;99.90
21487;DHT22;10905;50.822;4.336;2023-09-19T12:15:14;20.60;99.90
21487;DHT22;10905;50.822;4.336;2023-09-19T12:17:41;20.50;99.90
21487;DHT22;10905;50.822;4.336;2023-09-19T12:20:08;20.60;99.90
21487;DHT22;10905;50.822;4.336;2023-09-19T12:22:44;20.60;99.90
21487;DHT22;10905;50.822;4.336;2023-09-19T12:25:12;20.60;99.90
21487;DHT22;10905;50.822;4.336;2023-09-19T12:27:48;20.70;99.90
21487;DHT22;10905;50.822;4.336;2023-09-19T12:30:18;20.80;99.90
21487;DHT22;10905;50.822;4.336;2023-09-19T12:32:46;20.80;99.90
21487;DHT22;10905;50.822;4.336;2023-09-19T12:35:28;20.80;99.90
21487;DHT22;10905;50.822;4.336;2023-09-19T12:37:55;20.80;99.90
21487;DHT22;10905;50.822;4.336;2023-09-19T12:40:22;20.70;99.90
21487;DHT22;10905;50.822;4.336;2023-09-19T12:42:53;20.80;99.90
21487;DHT22;10905;50.822;4.336;2023-09-19T12:45:28;20.90;99.90
21487;DHT22;10905;50.822;4.336;2023-09-19T12:48:25;21.00;99.90
21487;DHT22;10905;50.822;4.336;2023-09-19T12:51:08;21.00;99.90
21487;DHT22;10905;50.822;4.336;2023-09-19T12:53:45;21.00;99.90
21487;DHT22;10905;50.822;4.336;2023-09-19T12:56:18;20.90;99.90
21487;DHT22;10905;50.822;4.336;2023-09-19T13:01:16;20.90;99.90
21487;DHT22;10905;50.822;4.336;2023-09-19T13:03:41;20.80;99.90
21487;DHT22;10905;50.822;4.336;2023-09-19T13:06:07;20.90;99.90
21487;DHT22;10905;50.822;4.336;2023-09-19T13:08:37;21.00;99.90
21487;DHT22;10905;50.822;4.336;2023-09-19T13:13:33;21.10;99.90
21487;DHT22;10905;50.822;4.336;2023-09-19T13:16:01;21.10;99.90
21487;DHT22;10905;50.822;4.336;2023-09-19T13:18:27;21.00;99.90
21487;DHT22;10905;50.822;4.336;2023-09-19T13:21:06;21.10;99.90
21487;DHT22;10905;50.822;4.336;2023-09-19T13:23:50;21.10;99.90
21487;DHT22;10905;50.822;4.336;2023-09-19T13:26:16;21.10;99.90
21487;DHT22;10905;50.822;4.336;2023-09-19T13:28:42;21.10;99.90
21487;DHT22;10905;50.822;4.336;2023-09-19T13:31:10;21.20;99.90
21487;DHT22;10905;50.822;4.336;2023-09-19T13:33:43;21.20;99.90
21487;DHT22;10905;50.822;4.336;2023-09-19T13:36:10;21.20;99.90
21487;DHT22;10905;50.822;4.336;2023-09-19T13:38:37;21.20;99.90
21487;DHT22;10905;50.822;4.336;2023-09-19T13:41:03;21.20;99.90
21487;DHT22;10905;50.822;4.336;2023-09-19T13:43:29;21.10;99.90
21487;DHT22;10905;50.822;4.336;2023-09-19T13:45:54;21.10;99.90
21487;DHT22;10905;50.822;4.336;2023-09-19T13:48:20;21.00;99.90
21487;DHT22;10905;50.822;4.336;2023-09-19T13:50:48;21.00;99.90
21487;DHT22;10905;50.822;4.336;2023-09-19T13:53:14;21.00;99.90
21487;DHT22;10905;50.822;4.336;2023-09-19T13:55:40;21.10;99.90
21487;DHT22;10905;50.822;4.336;2023-09-19T13:58:06;21.10;99.90
21487;DHT22;10905;50.822;4.336;2023-09-19T14:00:33;21.10;99.90
21487;DHT22;10905;50.822;4.336;2023-09-19T14:03:00;21.00;99.90
21487;DHT22;10905;50.822;4.336;2023-09-19T14:05:27;21.00;99.90
21487;DHT22;10905;50.822;4.336;2023-09-19T14:07:53;20.90;99.90
21487;DHT22;10905;50.822;4.336;2023-09-19T14:10:22;20.80;99.90
21487;DHT22;10905;50.822;4.336;2023-09-19T14:12:48;20.80;99.90
21487;DHT22;10905;50.822;4.336;2023-09-19T14:15:14;20.70;99.90
21487;DHT22;10905;50.822;4.336;2023-09-19T14:17:40;20.70;99.90
21487;DHT22;10905;50.822;4.336;2023-09-19T14:20:11;20.80;99.90
21487;DHT22;10905;50.822;4.336;2023-09-19T14:22:36;20.90;99.90
21487;DHT22;10905;50.822;4.336;2023-09-19T14:25:03;21.00;99.90
21487;DHT22;10905;50.822;4.336;2023-09-19T14:27:30;21.20;99.90
21487;DHT22;10905;50.822;4.336;2023-09-19T14:29:55;21.20;99.90
21487;DHT22;10905;50.822;4.336;2023-09-19T14:32:23;21.20;99.90
21487;DHT22;10905;50.822;4.336;2023-09-19T14:34:48;21.20;99.90
21487;DHT22;10905;50.822;4.336;2023-09-19T14:37:14;21.30;99.90
21487;DHT22;10905;50.822;4.336;2023-09-19T14:39:41;21.20;99.90
21487;DHT22;10905;50.822;4.336;2023-09-19T14:42:10;21.30;99.90
21487;DHT22;10905;50.822;4.336;2023-09-19T14:44:36;21.30;99.90
21487;DHT22;10905;50.822;4.336;2023-09-19T14:47:03;21.30;99.90
21487;DHT22;10905;50.822;4.336;2023-09-19T14:49:30;21.30;99.90
21487;DHT22;10905;50.822;4.336;2023-09-19T14:51:58;21.30;99.90
21487;DHT22;10905;50.822;4.336;2023-09-19T14:54:23;21.30;99.90
21487;DHT22;10905;50.822;4.336;2023-09-19T14:56:49;21.20;99.90
21487;DHT22;10905;50.822;4.336;2023-09-19T14:59:19;21.20;99.90
21487;DHT22;10905;50.822;4.336;2023-09-19T15:01:45;21.10;99.90
21487;DHT22;10905;50.822;4.336;2023-09-19T15:04:11;21.10;99.90
21487;DHT22;10905;50.822;4.336;2023-09-19T15:06:36;21.10;99.90
21487;DHT22;10905;50.822;4.336;2023-09-19T15:09:02;21.10;99.90
21487;DHT22;10905;50.822;4.336;2023-09-19T15:11:30;21.10;99.90
21487;DHT22;10905;50.822;4.336;2023-09-19T15:13:56;21.10;99.90
21487;DHT22;10905;50.822;4.336;2023-09-19T15:16:22;21.00;99.90
21487;DHT22;10905;50.822;4.336;2023-09-19T15:18:47;21.00;99.90
21487;DHT22;10905;50.822;4.336;2023-09-19T15:21:14;20.90;99.90
21487;DHT22;10905;50.822;4.336;2023-09-19T15:23:41;20.90;99.90
21487;DHT22;10905;50.822;4.336;2023-09-19T15:26:10;20.80;99.90
21487;DHT22;10905;50.822;4.336;2023-09-19T15:28:37;20.80;99.90
21487;DHT22;10905;50.822;4.336;2023-09-19T15:31:08;20.70;99.90
21487;DHT22;10905;50.822;4.336;2023-09-19T15:33:35;20.70;99.90
21487;DHT22;10905;50.822;4.336;2023-09-19T15:36:08;20.70;99.90
21487;DHT22;10905;50.822;4.336;2023-09-19T15:39:08;20.60;99.90
21487;DHT22;10905;50.822;4.336;2023-09-19T15:41:40;20.50;99.90
21487;DHT22;10905;50.822;4.336;2023-09-19T15:44:17;20.60;99.90
21487;DHT22;10905;50.822;4.336;2023-09-19T15:46:44;20.60;99.90
21487;DHT22;10905;50.822;4.336;2023-09-19T15:49:11;20.60;99.90
21487;DHT22;10905;50.822;4.336;2023-09-19T15:51:37;20.60;99.90
21487;DHT22;10905;50.822;4.336;2023-09-19T15:54:20;20.70;99.90
21487;DHT22;10905;50.822;4.336;2023-09-19T15:56:47;20.60;99.90
21487;DHT22;10905;50.822;4.336;2023-09-19T15:59:14;20.50;99.90
21487;DHT22;10905;50.822;4.336;2023-09-19T16:01:44;20.40;99.90
21487;DHT22;10905;50.822;4.336;2023-09-19T16:04:10;20.50;99.90
21487;DHT22;10905;50.822;4.336;2023-09-19T16:06:38;20.50;99.90
21487;DHT22;10905;50.822;4.336;2023-09-19T16:09:04;20.60;99.90
21487;DHT22;10905;50.822;4.336;2023-09-19T16:11:32;20.60;99.90
21487;DHT22;10905;50.822;4.336;2023-09-19T16:13:58;20.70;99.90
21487;DHT22;10905;50.822;4.336;2023-09-19T16:16:26;20.60;99.90
21487;DHT22;10905;50.822;4.336;2023-09-19T16:19:00;20.60;99.90
21487;DHT22;10905;50.822;4.336;2023-09-19T16:21:33;20.50;99.90
21487;DHT22;10905;50.822;4.336;2023-09-19T16:24:00;20.50;99.90
21487;DHT22;10905;50.822;4.336;2023-09-19T16:26:27;20.40;99.90